KPRN

Details ICAO KPRN
Name MAC CRENSHAW MEM
Region United States
Timezone America/Chicago (UTC-5.0)
Plans Departing 0
Arriving 2
Stats Elevation 451 ft / 137 m (AMSL)
Location 31.845695° -86.610737°
Runways 1
Magnetic Variation 3.411° W
Sunrise 2018-05-26 10:44:59 UTC / 2018-05-26 05:44:59 Local
Sunset 2018-05-27 00:44:55 UTC / 2018-05-26 19:44:55 Local
Advertisement - Login to hide

Runways

ID Width Length Bearing (true) Bearing (mag) Surface Threshold Offset Overrun Length
14 80 ft / 24 m 5,506 ft / 1,678 m 139.81° 143.22° Asphalt 0 ft / 0 m 0 ft / 0 m
32 80 ft / 24 m 5,506 ft / 1,678 m 319.81° 323.22° Asphalt 300 ft / 91 m 0 ft / 0 m

Map

Weather


0- 5 10 15 20 25 30 35+ Temperature / ° C

Clouds and Precipitation
Forecast for 2018-05-26 06:00 UTC. Updated 3 hours ago

Ground ~20,000 ft ~40,000 ft Winds

METAR

KPRN 260756Z AUTO 00000KT 1/2SM FG VV001 21/18 A2991 RMK AO2 SLP122 T02060183 TSNO

TAF

Not found

Frequencies

Recorded 120.00 MHz ASOS
Unicom 122.80 MHz CTAF/UNICOM
Warning: Do not use this data for real-world aviation or navigation. No guarantee of current accuracy is given.